Time;durP1;ratioP1;P1;durP2;ratioP2;P2;SDS_P1;SDS_P2;PMS_P1;PMS_P2;Temp;Humidity;BMP_temperature;BMP_pressure;BME280_temperature;BME280_humidity;BME280_pressure;Samples;Min_cycle;Max_cycle;Signal;HPM_P1;HPM_P2
2023/04/14 00:01:16;;;;;;;12.23;2.88;;;7.10;99.90;;;;;;5073073;28;20040;-71
2023/04/14 00:03:42;;;;;;;11.18;2.65;;;7.10;99.90;;;;;;5073425;28;20036;-70
2023/04/14 00:06:08;;;;;;;18.25;3.42;;;7.10;99.90;;;;;;5073336;28;20054;-70
2023/04/14 00:08:34;;;;;;;8.70;2.30;;;7.10;99.90;;;;;;5073453;28;20548;-70
2023/04/14 00:10:59;;;;;;;11.10;2.95;;;7.00;99.90;;;;;;5072708;28;20380;-70
2023/04/14 00:13:25;;;;;;;14.60;3.30;;;7.00;99.90;;;;;;5072709;28;20028;-70
2023/04/14 00:15:50;;;;;;;21.00;3.33;;;7.00;99.90;;;;;;5072019;28;20119;-71
2023/04/14 00:18:16;;;;;;;14.60;3.10;;;7.00;99.90;;;;;;5073333;28;20028;-71
2023/04/14 00:20:42;;;;;;;12.52;3.08;;;7.00;99.90;;;;;;5072970;28;20079;-71
2023/04/14 00:23:07;;;;;;;13.23;2.85;;;7.00;99.90;;;;;;5073531;28;20036;-70
2023/04/14 00:25:33;;;;;;;14.57;2.63;;;7.00;99.90;;;;;;5072951;28;20025;-70
2023/04/14 00:27:58;;;;;;;14.95;2.90;;;7.00;99.90;;;;;;5072808;28;20044;-70
2023/04/14 00:30:24;;;;;;;13.60;2.72;;;7.00;99.90;;;;;;5073339;28;20033;-71
2023/04/14 00:32:50;;;;;;;16.15;2.97;;;6.90;99.90;;;;;;5072984;28;20025;-70
2023/04/14 00:35:15;;;;;;;23.63;3.50;;;7.00;99.90;;;;;;5072914;28;20066;-71
2023/04/14 00:37:41;;;;;;;15.50;2.72;;;6.90;99.90;;;;;;5073027;28;20445;-72
2023/04/14 00:40:09;;;;;;;11.75;2.72;;;6.90;99.90;;;;;;5073062;28;20474;-72
2023/04/14 00:42:45;;;;;;;13.68;2.83;;;6.90;99.90;;;;;;5072714;28;20045;-71
2023/04/14 00:45:12;;;;;;;14.93;3.13;;;6.90;99.90;;;;;;5072723;28;20044;-71
2023/04/14 00:47:45;;;;;;;14.25;3.47;;;6.90;99.90;;;;;;5073126;28;20057;-71
2023/04/14 00:50:12;;;;;;;8.80;3.00;;;6.90;99.90;;;;;;5073188;28;20028;-72
2023/04/14 00:52:38;;;;;;;16.52;3.30;;;6.90;99.90;;;;;;5072941;28;20036;-70
2023/04/14 00:55:05;;;;;;;15.85;3.03;;;6.90;99.90;;;;;;5072457;28;20036;-72
2023/04/14 00:57:30;;;;;;;9.75;2.92;;;6.80;99.90;;;;;;5072973;28;20028;-70
2023/04/14 01:00:00;;;;;;;13.93;3.97;;;6.80;99.90;;;;;;5072533;28;20025;-71
2023/04/14 01:02:26;;;;;;;25.55;4.80;;;6.80;99.90;;;;;;5074272;28;20059;-71
2023/04/14 01:04:51;;;;;;;13.82;3.22;;;6.80;99.90;;;;;;5076475;28;20454;-71
2023/04/14 01:07:18;;;;;;;14.63;2.60;;;6.80;99.90;;;;;;5076671;28;20497;-70
2023/04/14 01:09:44;;;;;;;13.27;3.20;;;6.80;99.90;;;;;;5076401;28;20055;-71
2023/04/14 01:12:22;;;;;;;12.73;2.83;;;6.70;99.90;;;;;;5076552;28;20479;-71
2023/04/14 01:15:03;;;;;;;14.10;3.63;;;6.70;99.90;;;;;;5076354;28;20039;-71
2023/04/14 01:17:44;;;;;;;10.68;3.00;;;6.70;99.90;;;;;;5076227;28;20098;-71
2023/04/14 01:20:33;;;;;;;15.77;3.85;;;6.60;99.90;;;;;;5076417;28;20048;-71
2023/04/14 01:23:07;;;;;;;13.10;2.67;;;6.60;99.90;;;;;;5076604;28;20036;-71
2023/04/14 01:25:45;;;;;;;10.48;3.78;;;6.60;99.90;;;;;;5076036;28;20473;-71
2023/04/14 01:28:25;;;;;;;11.68;3.17;;;6.60;99.90;;;;;;5075669;28;20059;-71
2023/04/14 01:31:17;;;;;;;13.75;3.80;;;6.60;99.90;;;;;;5076311;28;20040;-71
2023/04/14 01:33:47;;;;;;;13.40;3.35;;;6.50;99.90;;;;;;5038585;28;20028;-71
2023/04/14 01:36:21;;;;;;;16.00;4.32;;;6.50;99.90;;;;;;5060947;28;20043;-72
2023/04/14 01:38:47;;;;;;;16.77;4.15;;;6.50;99.90;;;;;;5055886;28;20120;-70
2023/04/14 01:41:15;;;;;;;18.23;4.43;;;6.50;99.90;;;;;;5055834;28;20064;-72
2023/04/14 01:43:44;;;;;;;13.40;3.88;;;6.50;99.90;;;;;;5055949;28;20061;-70
2023/04/14 01:46:13;;;;;;;11.75;4.75;;;6.50;99.90;;;;;;5056050;28;20048;-71
2023/04/14 01:48:40;;;;;;;13.55;4.30;;;6.50;99.90;;;;;;5056048;28;20052;-71
2023/04/14 01:51:07;;;;;;;11.65;4.28;;;6.50;99.90;;;;;;5055670;28;20031;-70
2023/04/14 01:53:38;;;;;;;14.23;4.30;;;6.50;99.90;;;;;;5055633;28;20017;-70
2023/04/14 01:56:07;;;;;;;12.90;4.43;;;6.50;99.90;;;;;;5055752;28;20039;-70
2023/04/14 01:58:35;;;;;;;17.58;5.28;;;6.50;99.90;;;;;;5055780;28;20025;-71
2023/04/14 02:01:01;;;;;;;19.35;5.22;;;6.40;99.90;;;;;;5055520;28;20029;-71
2023/04/14 02:03:28;;;;;;;13.18;4.50;;;6.40;99.90;;;;;;5055767;28;20074;-70
2023/04/14 02:05:54;;;;;;;16.80;4.90;;;6.50;99.90;;;;;;5055462;28;20025;-71
2023/04/14 02:08:21;;;;;;;15.57;4.68;;;6.40;99.90;;;;;;5055535;28;20100;-71
2023/04/14 02:10:50;;;;;;;15.65;4.82;;;6.50;99.90;;;;;;5055833;28;20036;-71
2023/04/14 02:13:18;;;;;;;17.73;5.05;;;6.40;99.90;;;;;;5054713;28;20025;-72
2023/04/14 02:15:49;;;;;;;17.73;4.97;;;6.40;99.90;;;;;;5055080;28;20040;-71
2023/04/14 02:18:19;;;;;;;21.15;5.53;;;6.50;99.90;;;;;;5055228;28;20477;-69
2023/04/14 02:20:47;;;;;;;16.40;4.68;;;6.40;99.90;;;;;;5055224;28;20082;-71
2023/04/14 02:23:13;;;;;;;16.05;4.55;;;6.40;99.90;;;;;;5054897;28;20051;-71
2023/04/14 02:25:48;;;;;;;12.43;3.83;;;6.40;99.90;;;;;;5055231;28;20140;-71
2023/04/14 02:28:18;;;;;;;12.98;5.25;;;6.40;99.90;;;;;;5054807;28;20045;-71
2023/04/14 02:30:47;;;;;;;15.73;5.82;;;6.40;99.90;;;;;;5054588;28;20376;-70
2023/04/14 02:33:18;;;;;;;19.05;5.22;;;6.40;99.90;;;;;;5055303;28;20065;-71
2023/04/14 02:35:59;;;;;;;19.65;5.03;;;6.40;99.90;;;;;;5066103;28;20302;-71
2023/04/14 02:38:25;;;;;;;14.60;4.65;;;6.40;99.90;;;;;;5074964;28;20566;-69
2023/04/14 02:40:50;;;;;;;17.88;4.95;;;6.40;99.90;;;;;;5074538;28;20123;-70
2023/04/14 02:43:42;;;;;;;13.25;5.05;;;6.40;99.90;;;;;;5074707;28;20040;-71
2023/04/14 02:46:10;;;;;;;16.33;5.22;;;6.40;99.90;;;;;;5074966;28;20021;-70
2023/04/14 02:48:38;;;;;;;18.13;5.13;;;6.40;99.90;;;;;;5074675;28;20032;-69
2023/04/14 02:51:05;;;;;;;17.10;4.90;;;6.30;99.90;;;;;;5074725;28;20052;-71
2023/04/14 02:53:32;;;;;;;16.58;5.10;;;6.30;99.90;;;;;;5074157;28;20035;-70
2023/04/14 02:55:58;;;;;;;19.67;5.25;;;6.30;99.90;;;;;;5074507;28;20027;-69
2023/04/14 02:58:24;;;;;;;17.55;4.63;;;6.30;99.90;;;;;;5074662;28;20075;-70
2023/04/14 03:00:51;;;;;;;13.15;4.15;;;6.30;99.90;;;;;;5074479;28;20028;-70
2023/04/14 03:03:17;;;;;;;15.70;5.18;;;6.30;99.90;;;;;;5075046;28;20028;-69
2023/04/14 03:05:44;;;;;;;18.10;5.82;;;6.30;99.90;;;;;;5074143;28;20028;-70
2023/04/14 03:08:12;;;;;;;20.67;5.47;;;6.30;99.90;;;;;;5074051;28;20033;-70
2023/04/14 03:10:38;;;;;;;12.10;4.50;;;6.30;99.90;;;;;;5074161;28;20381;-70
2023/04/14 03:13:05;;;;;;;15.60;5.43;;;6.30;99.90;;;;;;5074438;28;20021;-70
2023/04/14 03:15:32;;;;;;;17.05;5.35;;;6.30;99.90;;;;;;5074422;28;20025;-71
2023/04/14 03:17:58;;;;;;;19.88;5.97;;;6.30;99.90;;;;;;5074004;28;20032;-70
2023/04/14 03:20:25;;;;;;;17.55;5.10;;;6.30;99.90;;;;;;5073992;28;20028;-71
2023/04/14 03:23:04;;;;;;;18.63;5.45;;;6.30;99.90;;;;;;5073873;28;20033;-70
2023/04/14 03:25:33;;;;;;;15.52;5.50;;;6.20;99.90;;;;;;5073465;28;20021;-70
2023/04/14 03:28:01;;;;;;;17.05;6.30;;;6.20;99.90;;;;;;5072448;28;20408;-70
2023/04/14 03:30:30;;;;;;;18.67;6.82;;;6.20;99.90;;;;;;5073622;28;20384;-70
2023/04/14 03:33:00;;;;;;;14.73;5.07;;;6.20;99.90;;;;;;5073938;28;20028;-70
2023/04/14 03:35:27;;;;;;;21.88;7.32;;;6.20;99.90;;;;;;5064961;28;20521;-70
2023/04/14 03:37:58;;;;;;;24.15;7.15;;;6.10;99.90;;;;;;5053988;28;20035;-71
2023/04/14 03:40:29;;;;;;;17.50;6.50;;;6.10;99.90;;;;;;5053976;28;20131;-70
2023/04/14 03:42:57;;;;;;;20.45;7.60;;;6.10;99.90;;;;;;5053618;28;20574;-71
2023/04/14 03:45:24;;;;;;;24.08;8.25;;;6.00;99.90;;;;;;5053519;28;20113;-70
2023/04/14 03:47:54;;;;;;;23.00;8.52;;;6.00;99.90;;;;;;5053088;28;20036;-70
2023/04/14 03:50:21;;;;;;;25.15;8.65;;;6.00;99.90;;;;;;5053717;28;20021;-71
2023/04/14 03:52:49;;;;;;;24.48;8.77;;;5.90;99.90;;;;;;5053775;28;20041;-72
2023/04/14 03:55:17;;;;;;;22.88;8.02;;;5.90;99.90;;;;;;5053682;28;20064;-69
2023/04/14 03:57:45;;;;;;;19.30;8.45;;;5.90;99.90;;;;;;5053346;28;20029;-69
2023/04/14 04:00:12;;;;;;;20.80;9.82;;;5.90;99.90;;;;;;5053600;28;20028;-69
2023/04/14 04:02:40;;;;;;;94.47;15.07;;;5.80;99.90;;;;;;5053322;28;20558;-72
2023/04/14 04:05:08;;;;;;;20.73;10.02;;;5.80;99.90;;;;;;5053531;28;20074;-69
2023/04/14 04:07:34;;;;;;;27.77;9.88;;;5.80;99.90;;;;;;5053574;28;20063;-70
2023/04/14 04:10:05;;;;;;;19.70;9.07;;;5.70;99.90;;;;;;5053315;28;20036;-70
2023/04/14 04:12:32;;;;;;;24.30;9.40;;;5.70;99.90;;;;;;5053494;28;20056;-70
2023/04/14 04:14:57;;;;;;;19.92;9.32;;;5.70;99.90;;;;;;5053291;28;20028;-69
2023/04/14 04:17:25;;;;;;;21.90;10.10;;;5.70;99.90;;;;;;5053752;28;20029;-70
2023/04/14 04:19:53;;;;;;;21.83;8.93;;;5.70;99.90;;;;;;5053399;28;20029;-70
2023/04/14 04:22:20;;;;;;;25.40;9.43;;;5.60;99.90;;;;;;5053124;28;20106;-70
2023/04/14 04:24:47;;;;;;;25.98;8.70;;;5.60;99.90;;;;;;5062145;28;20037;-70
2023/04/14 04:27:15;;;;;;;24.23;9.73;;;5.60;99.90;;;;;;5052750;28;20049;-70
2023/04/14 04:29:40;;;;;;;21.85;9.48;;;5.50;99.90;;;;;;5051737;28;20479;-70
2023/04/14 04:32:06;;;;;;;22.02;9.80;;;5.50;99.90;;;;;;5053235;28;20096;-70
2023/04/14 04:34:33;;;;;;;25.60;10.25;;;5.50;99.90;;;;;;5053153;28;20051;-69
2023/04/14 04:37:02;;;;;;;25.27;10.00;;;5.50;99.90;;;;;;5056714;28;20029;-70
2023/04/14 04:39:31;;;;;;;26.33;10.82;;;5.50;99.90;;;;;;5056975;28;20154;-70
2023/04/14 04:42:04;;;;;;;24.48;9.90;;;5.50;99.90;;;;;;5056618;28;20048;-69
2023/04/14 04:44:32;;;;;;;18.92;9.23;;;5.50;99.90;;;;;;5057223;28;20032;-69
2023/04/14 04:46:58;;;;;;;25.08;9.93;;;5.50;99.90;;;;;;5057080;28;20108;-69
2023/04/14 04:49:23;;;;;;;23.08;10.50;;;5.50;99.90;;;;;;5056432;28;20450;-70
2023/04/14 04:51:49;;;;;;;27.35;11.10;;;5.50;99.90;;;;;;5056000;28;20100;-69
2023/04/14 04:54:15;;;;;;;26.98;9.80;;;5.50;99.90;;;;;;5056828;28;20350;-69
2023/04/14 04:56:42;;;;;;;22.40;9.38;;;5.50;99.90;;;;;;5056338;28;20025;-70
2023/04/14 04:59:10;;;;;;;25.20;10.00;;;5.50;99.90;;;;;;5054294;28;20029;-70
2023/04/14 05:01:36;;;;;;;23.77;9.30;;;5.50;99.90;;;;;;5056888;28;20096;-70
2023/04/14 05:04:01;;;;;;;26.52;10.38;;;5.50;99.90;;;;;;5056615;28;20021;-71
2023/04/14 05:06:27;;;;;;;35.95;10.25;;;5.50;99.90;;;;;;5056127;28;20083;-70
2023/04/14 05:08:54;;;;;;;24.95;10.45;;;5.50;99.90;;;;;;5056491;28;20350;-71
2023/04/14 05:11:20;;;;;;;27.30;9.60;;;5.50;99.90;;;;;;5056298;28;20037;-69
2023/04/14 05:13:46;;;;;;;26.55;10.07;;;5.50;99.90;;;;;;5056364;28;20542;-70
2023/04/14 05:16:15;;;;;;;28.63;10.25;;;5.50;99.90;;;;;;5056604;28;20074;-70
2023/04/14 05:18:42;;;;;;;30.48;10.10;;;5.60;99.90;;;;;;5056488;28;20033;-71
2023/04/14 05:21:12;;;;;;;27.63;10.55;;;5.60;99.90;;;;;;5055785;28;20033;-70
2023/04/14 05:23:39;;;;;;;23.85;10.05;;;5.60;99.90;;;;;;5054764;28;20079;-69
2023/04/14 05:26:05;;;;;;;21.65;9.60;;;5.70;99.90;;;;;;5055321;28;20465;-69
2023/04/14 05:28:31;;;;;;;28.10;10.55;;;5.70;99.90;;;;;;5056288;28;20049;-70
2023/04/14 05:30:57;;;;;;;26.48;10.45;;;5.70;99.90;;;;;;5055929;28;20107;-71
2023/04/14 05:33:22;;;;;;;28.90;11.25;;;5.70;99.90;;;;;;5055838;28;20057;-70
2023/04/14 05:35:49;;;;;;;26.73;11.40;;;5.80;99.90;;;;;;5056052;28;20095;-70
2023/04/14 05:38:17;;;;;;;25.90;10.88;;;5.80;99.90;;;;;;5056050;28;20152;-71
2023/04/14 05:40:43;;;;;;;29.20;10.57;;;5.90;99.90;;;;;;5056033;28;20028;-71
2023/04/14 05:43:09;;;;;;;32.00;12.23;;;5.90;99.90;;;;;;5055824;28;20029;-71
2023/04/14 05:45:35;;;;;;;27.95;11.45;;;5.90;99.90;;;;;;5056091;28;20100;-70
2023/04/14 05:48:00;;;;;;;30.42;11.60;;;6.00;99.90;;;;;;5054877;28;20053;-71
2023/04/14 05:50:26;;;;;;;35.03;12.63;;;6.00;99.90;;;;;;5055730;28;20036;-71
2023/04/14 05:52:52;;;;;;;26.88;10.35;;;6.10;99.90;;;;;;5055179;28;20053;-71
2023/04/14 05:55:18;;;;;;;32.25;12.50;;;6.10;99.90;;;;;;5055993;28;20021;-71
2023/04/14 05:57:44;;;;;;;31.95;11.55;;;6.20;99.90;;;;;;5056197;28;20060;-70
2023/04/14 06:00:11;;;;;;;27.80;12.32;;;6.20;99.90;;;;;;5055930;28;20071;-71
2023/04/14 06:02:37;;;;;;;32.85;11.65;;;6.30;99.90;;;;;;5055321;28;20211;-70
2023/04/14 06:05:06;;;;;;;27.98;10.98;;;6.30;99.90;;;;;;5055354;28;20485;-70
2023/04/14 06:07:32;;;;;;;28.75;9.88;;;6.40;99.90;;;;;;5055233;28;20037;-70
2023/04/14 06:09:57;;;;;;;24.95;10.02;;;6.40;99.90;;;;;;5056144;28;20371;-70
2023/04/14 06:12:23;;;;;;;24.90;11.10;;;6.50;99.90;;;;;;5055880;28;20481;-70
2023/04/14 06:14:48;;;;;;;30.52;11.82;;;6.60;99.90;;;;;;5055191;28;20480;-70
2023/04/14 06:17:14;;;;;;;24.77;10.75;;;6.70;99.90;;;;;;5055056;28;20029;-71
2023/04/14 06:19:39;;;;;;;22.83;9.55;;;6.70;99.90;;;;;;5054978;28;20021;-70
2023/04/14 06:22:05;;;;;;;21.55;8.88;;;6.80;99.90;;;;;;5054791;28;20538;-71
2023/04/14 06:24:33;;;;;;;19.85;8.25;;;6.90;99.90;;;;;;5055320;28;20479;-70
2023/04/14 06:27:02;;;;;;;25.80;10.02;;;7.00;99.90;;;;;;5055159;28;20060;-70
2023/04/14 06:29:29;;;;;;;18.85;7.60;;;7.10;99.90;;;;;;5054971;28;20402;-71
2023/04/14 06:31:56;;;;;;;23.00;9.52;;;7.20;99.90;;;;;;5055369;28;20033;-70
2023/04/14 06:34:22;;;;;;;25.27;8.80;;;7.30;99.90;;;;;;5054105;28;20377;-70
2023/04/14 06:36:48;;;;;;;17.95;7.43;;;7.40;99.90;;;;;;5053856;28;20460;-71
2023/04/14 06:39:13;;;;;;;25.88;8.43;;;7.50;99.90;;;;;;5054899;28;20028;-70
2023/04/14 06:41:39;;;;;;;25.20;8.35;;;7.60;99.90;;;;;;5054963;28;20047;-70
2023/04/14 06:44:05;;;;;;;29.65;12.70;;;7.60;99.90;;;;;;5058973;28;20024;-71
2023/04/14 06:46:34;;;;;;;22.08;7.32;;;7.80;99.90;;;;;;5074380;28;20025;-70
2023/04/14 06:49:00;;;;;;;24.60;7.80;;;8.00;99.90;;;;;;5074027;28;20047;-70
2023/04/14 06:51:26;;;;;;;21.63;8.20;;;8.10;99.90;;;;;;5074551;28;20111;-70
2023/04/14 06:53:51;;;;;;;24.75;8.10;;;8.20;99.90;;;;;;5074427;28;20171;-70
2023/04/14 06:56:17;;;;;;;22.58;7.50;;;8.40;99.90;;;;;;5074185;28;20043;-70
2023/04/14 06:58:42;;;;;;;22.50;7.78;;;8.70;99.90;;;;;;5074142;28;20380;-70
2023/04/14 07:01:08;;;;;;;21.30;7.57;;;9.00;99.90;;;;;;5074405;28;20035;-70
2023/04/14 07:03:33;;;;;;;23.88;7.95;;;9.30;99.90;;;;;;5070436;28;20094;-70
2023/04/14 07:06:09;;;;;;;25.77;7.20;;;9.70;99.90;;;;;;5074128;28;20068;-70
2023/04/14 07:08:37;;;;;;;23.40;6.38;;;10.10;99.90;;;;;;5072263;28;20050;-70
2023/04/14 07:11:04;;;;;;;21.52;7.13;;;10.30;99.90;;;;;;5068486;28;20029;-70
2023/04/14 07:13:31;;;;;;;21.55;6.60;;;10.50;99.90;;;;;;5066914;28;20032;-70
2023/04/14 07:15:56;;;;;;;20.67;6.30;;;10.70;99.90;;;;;;5074232;28;20479;-70
2023/04/14 07:18:22;;;;;;;24.83;6.88;;;10.70;99.90;;;;;;5073916;28;20021;-71
2023/04/14 07:20:52;;;;;;;23.35;6.93;;;10.80;99.90;;;;;;5073999;28;20020;-70
2023/04/14 07:23:18;;;;;;;17.98;5.25;;;10.90;99.90;;;;;;5071908;28;20029;-70
2023/04/14 07:25:47;;;;;;;16.63;5.50;;;11.10;99.90;;;;;;5064794;28;20058;-70
2023/04/14 07:28:13;;;;;;;18.38;5.45;;;11.10;99.90;;;;;;5073956;28;20087;-70
2023/04/14 07:30:38;;;;;;;18.65;5.85;;;11.40;99.90;;;;;;5073444;28;20563;-71
2023/04/14 07:33:04;;;;;;;19.00;6.20;;;11.50;99.90;;;;;;5073599;28;20372;-71
2023/04/14 07:35:30;;;;;;;19.65;5.50;;;11.80;99.90;;;;;;5073811;28;20025;-70
2023/04/14 07:37:55;;;;;;;18.48;6.55;;;12.20;99.90;;;;;;5073675;28;20123;-70
2023/04/14 07:40:21;;;;;;;20.40;6.85;;;12.70;99.90;;;;;;5071301;28;20020;-71
2023/04/14 07:42:46;;;;;;;14.75;5.55;;;13.20;99.90;;;;;;5060363;28;20039;-70
2023/04/14 07:45:12;;;;;;;16.10;4.63;;;13.60;99.90;;;;;;5073287;28;20497;-70
2023/04/14 07:47:37;;;;;;;12.25;4.35;;;14.20;99.90;;;;;;5073271;28;20066;-71
2023/04/14 07:50:03;;;;;;;13.55;4.50;;;15.00;99.90;;;;;;5073526;28;20029;-71
2023/04/14 07:52:29;;;;;;;13.43;4.28;;;15.80;99.90;;;;;;5073537;28;20350;-71
2023/04/14 07:54:55;;;;;;;16.65;4.15;;;16.30;99.90;;;;;;5073488;28;20111;-71
2023/04/14 07:57:21;;;;;;;11.60;3.65;;;17.10;99.90;;;;;;5073243;28;20107;-70
2023/04/14 07:59:47;;;;;;;12.60;3.05;;;17.90;98.30;;;;;;5057884;28;20025;-71
2023/04/14 08:02:12;;;;;;;14.25;3.97;;;18.50;96.90;;;;;;5071405;28;20067;-69
2023/04/14 08:04:38;;;;;;;14.95;4.32;;;18.70;96.20;;;;;;5069967;28;20103;-70
2023/04/14 08:07:04;;;;;;;10.60;3.28;;;19.30;96.00;;;;;;5073253;28;20073;-70
2023/04/14 08:09:29;;;;;;;12.38;3.92;;;19.30;94.60;;;;;;5070851;28;20032;-70
2023/04/14 08:11:56;;;;;;;14.90;4.22;;;19.40;94.90;;;;;;5059828;28;20063;-70
2023/04/14 08:14:22;;;;;;;12.95;4.30;;;19.70;94.50;;;;;;5072589;28;20146;-70
2023/04/14 08:16:48;;;;;;;12.88;3.80;;;20.30;94.00;;;;;;5073167;28;20107;-70
2023/04/14 08:19:14;;;;;;;12.07;3.40;;;21.10;92.80;;;;;;5073159;28;20028;-70
2023/04/14 08:21:39;;;;;;;11.48;4.05;;;21.60;91.80;;;;;;5073182;28;20498;-70
2023/04/14 08:24:05;;;;;;;15.50;4.45;;;22.30;91.60;;;;;;5070968;28;20021;-70
2023/04/14 08:26:31;;;;;;;11.02;2.90;;;22.60;90.00;;;;;;5064000;28;20029;-70
2023/04/14 08:28:56;;;;;;;12.90;3.63;;;22.60;89.50;;;;;;5072085;28;20076;-70
2023/04/14 08:31:23;;;;;;;12.40;3.75;;;22.70;88.20;;;;;;5072858;28;20060;-71
2023/04/14 08:33:49;;;;;;;9.88;2.75;;;22.80;88.60;;;;;;5073238;28;20032;-70
2023/04/14 08:36:14;;;;;;;11.68;3.25;;;23.20;86.60;;;;;;5072865;28;20020;-70
2023/04/14 08:38:40;;;;;;;9.82;2.75;;;23.30;84.80;;;;;;5070620;28;20979;-69
2023/04/14 08:41:08;;;;;;;8.27;2.30;;;22.90;85.90;;;;;;5066122;28;20071;-70
2023/04/14 08:43:34;;;;;;;10.18;2.88;;;23.00;84.80;;;;;;5065816;28;20036;-70
2023/04/14 08:46:01;;;;;;;10.10;3.15;;;23.10;84.20;;;;;;5072544;28;20025;-70
2023/04/14 08:48:29;;;;;;;6.95;2.42;;;23.00;83.50;;;;;;5072961;28;20044;-70
2023/04/14 08:51:07;;;;;;;11.13;2.88;;;23.00;83.20;;;;;;5073111;28;20048;-70
2023/04/14 08:53:36;;;;;;;5.90;1.75;;;22.60;83.80;;;;;;5072756;28;20033;-70
2023/04/14 08:56:03;;;;;;;9.70;2.63;;;22.30;83.00;;;;;;5072651;28;20029;-70
2023/04/14 08:58:30;;;;;;;8.65;2.65;;;22.40;84.40;;;;;;5072346;28;20436;-70
2023/04/14 09:00:56;;;;;;;5.93;1.52;;;22.70;83.20;;;;;;5072437;28;20357;-70
2023/04/14 09:03:22;;;;;;;7.65;1.63;;;23.20;81.50;;;;;;5072901;28;20036;-70
2023/04/14 09:05:49;;;;;;;7.80;2.58;;;23.50;80.40;;;;;;5072622;28;20384;-70
2023/04/14 09:08:15;;;;;;;5.07;1.88;;;23.90;81.20;;;;;;5071360;28;20098;-70
2023/04/14 09:10:42;;;;;;;5.88;1.83;;;24.60;78.70;;;;;;5069739;28;20031;-70
2023/04/14 09:13:11;;;;;;;5.25;1.73;;;24.70;78.20;;;;;;5061824;28;20481;-70
2023/04/14 09:15:37;;;;;;;7.57;1.88;;;25.00;78.90;;;;;;5072615;28;20029;-70
2023/04/14 09:18:03;;;;;;;3.35;1.63;;;25.70;76.00;;;;;;5072202;28;20035;-70
2023/04/14 09:20:29;;;;;;;4.43;1.83;;;25.60;75.80;;;;;;5072291;28;20031;-70
2023/04/14 09:22:55;;;;;;;8.43;2.75;;;25.70;76.80;;;;;;5074256;28;20037;-70
2023/04/14 09:25:22;;;;;;;5.53;1.85;;;26.10;76.40;;;;;;5076204;28;20024;-70
2023/04/14 09:27:48;;;;;;;5.10;1.67;;;26.80;74.40;;;;;;5076178;28;20052;-70
2023/04/14 09:30:16;;;;;;;5.43;1.75;;;26.90;72.70;;;;;;5076051;28;20035;-70
2023/04/14 09:32:43;;;;;;;7.10;2.00;;;26.60;71.60;;;;;;5074999;28;20384;-70
2023/04/14 09:35:12;;;;;;;3.35;1.38;;;26.60;71.50;;;;;;5075980;28;20130;-70
2023/04/14 09:37:42;;;;;;;6.38;1.65;;;26.60;70.70;;;;;;5076090;28;20025;-70
2023/04/14 09:40:08;;;;;;;5.28;1.80;;;26.60;71.20;;;;;;5075996;28;20096;-70
2023/04/14 09:42:41;;;;;;;7.45;1.63;;;26.70;70.20;;;;;;5075863;28;20516;-70
2023/04/14 09:45:08;;;;;;;4.00;1.50;;;26.60;70.60;;;;;;5075995;28;20461;-70
2023/04/14 09:47:34;;;;;;;3.75;1.38;;;26.20;69.90;;;;;;5076149;28;20105;-69
2023/04/14 09:50:04;;;;;;;4.63;1.45;;;25.30;70.20;;;;;;5075922;28;20063;-70
2023/04/14 09:52:37;;;;;;;8.32;2.22;;;25.20;71.00;;;;;;5075484;28;20021;-70
2023/04/14 09:55:14;;;;;;;5.32;1.45;;;25.70;70.90;;;;;;5075822;28;20023;-70
2023/04/14 09:57:46;;;;;;;3.17;1.65;;;25.30;70.60;;;;;;5075774;28;20020;-69
2023/04/14 10:00:14;;;;;;;3.80;1.33;;;24.20;72.00;;;;;;5075610;28;20035;-69
2023/04/14 10:02:54;;;;;;;5.20;1.48;;;22.90;74.50;;;;;;5075343;28;20404;-69
2023/04/14 10:05:28;;;;;;;5.72;2.17;;;22.90;75.50;;;;;;5075485;28;20036;-69
2023/04/14 10:07:54;;;;;;;4.20;1.33;;;23.40;74.20;;;;;;5075531;28;20025;-69
2023/04/14 10:10:20;;;;;;;4.75;1.13;;;23.60;73.80;;;;;;5073823;28;20021;-69
2023/04/14 10:12:45;;;;;;;6.63;1.65;;;24.20;72.10;;;;;;5060528;28;20047;-69
2023/04/14 10:15:13;;;;;;;3.78;1.30;;;24.10;72.90;;;;;;5075141;28;20024;-70
2023/04/14 10:17:39;;;;;;;7.22;1.60;;;23.90;72.70;;;;;;5075406;28;20093;-70
2023/04/14 10:20:05;;;;;;;4.43;1.27;;;24.30;73.80;;;;;;5075413;28;20444;-69
2023/04/14 10:22:31;;;;;;;5.60;1.10;;;25.10;72.50;;;;;;5075263;28;20047;-70
2023/04/14 10:25:00;;;;;;;7.47;1.98;;;25.90;70.50;;;;;;5067950;28;20381;-70
2023/04/14 10:27:28;;;;;;;5.57;1.20;;;26.10;69.40;;;;;;5072063;28;20098;-71
2023/04/14 10:29:54;;;;;;;3.45;1.20;;;26.40;69.10;;;;;;5067517;28;20120;-70
2023/04/14 10:32:22;;;;;;;7.28;1.77;;;26.50;67.70;;;;;;5067908;28;20105;-70
2023/04/14 10:35:04;;;;;;;5.05;1.48;;;26.30;68.70;;;;;;5073534;28;20028;-70
2023/04/14 10:37:30;;;;;;;3.58;1.00;;;27.00;69.20;;;;;;5069041;28;20060;-70
2023/04/14 10:39:58;;;;;;;7.20;1.08;;;27.70;66.80;;;;;;5056611;28;20028;-69
2023/04/14 10:42:25;;;;;;;2.05;1.17;;;27.20;66.20;;;;;;5072590;28;20481;-70
2023/04/14 10:45:07;;;;;;;7.00;1.73;;;26.50;66.90;;;;;;5058096;28;20051;-69
2023/04/14 10:47:36;;;;;;;5.25;1.88;;;26.00;68.20;;;;;;5074843;28;20043;-70
2023/04/14 10:50:12;;;;;;;5.28;1.70;;;26.10;67.50;;;;;;5074774;28;20049;-70
2023/04/14 10:52:54;;;;;;;2.40;1.10;;;26.40;67.50;;;;;;5074636;28;20131;-70
2023/04/14 10:55:25;;;;;;;4.65;1.58;;;26.20;66.70;;;;;;5072234;28;20111;-70
2023/04/14 10:57:53;;;;;;;5.68;2.03;;;25.70;67.10;;;;;;5074367;28;20036;-70
2023/04/14 11:00:30;;;;;;;4.65;1.17;;;25.70;66.90;;;;;;5074563;28;20032;-70
2023/04/14 11:02:57;;;;;;;9.88;1.83;;;25.70;66.80;;;;;;5074395;28;20032;-70
2023/04/14 11:05:23;;;;;;;5.63;1.75;;;25.00;67.50;;;;;;5073994;28;20465;-70
2023/04/14 11:07:54;;;;;;;6.00;1.75;;;24.40;67.60;;;;;;5074189;28;20486;-69
2023/04/14 11:10:20;;;;;;;6.72;1.75;;;24.00;67.90;;;;;;5074167;28;20473;-69
2023/04/14 11:12:47;;;;;;;5.07;1.65;;;23.20;69.50;;;;;;5074087;28;20031;-70
2023/04/14 11:15:14;;;;;;;5.95;1.73;;;22.70;70.50;;;;;;5070156;28;20033;-70
2023/04/14 11:17:41;;;;;;;4.90;1.85;;;23.10;71.20;;;;;;5060479;28;20400;-70
2023/04/14 11:20:21;;;;;;;6.90;1.88;;;24.10;70.10;;;;;;5073704;28;20037;-69
2023/04/14 11:22:49;;;;;;;3.78;1.73;;;24.80;68.50;;;;;;5074019;28;20045;-70
2023/04/14 11:25:19;;;;;;;4.40;1.60;;;25.10;69.00;;;;;;5073715;28;20031;-70
2023/04/14 11:27:49;;;;;;;4.18;1.52;;;25.50;68.20;;;;;;5073748;28;20143;-69
2023/04/14 11:30:17;;;;;;;5.75;1.65;;;25.30;67.70;;;;;;5072945;28;20467;-70
2023/04/14 11:32:52;;;;;;;7.10;1.55;;;24.50;67.80;;;;;;5073061;28;20135;-69
2023/04/14 11:35:19;;;;;;;5.47;1.58;;;24.40;67.70;;;;;;5058554;28;20043;-70
2023/04/14 11:37:45;;;;;;;7.35;1.92;;;24.30;68.10;;;;;;5074083;28;20058;-69
2023/04/14 11:40:13;;;;;;;4.63;1.33;;;24.10;68.70;;;;;;5073778;28;20031;-69
2023/04/14 11:42:46;;;;;;;2.55;1.30;;;24.10;67.80;;;;;;5073326;28;20411;-70
2023/04/14 11:45:14;;;;;;;5.15;1.58;;;23.80;68.50;;;;;;5056716;28;20123;-70
2023/04/14 11:47:54;;;;;;;7.28;1.90;;;23.30;68.60;;;;;;5073623;28;20027;-70
2023/04/14 11:50:20;;;;;;;6.43;1.70;;;23.80;68.90;;;;;;5073450;28;20035;-70
2023/04/14 11:52:46;;;;;;;5.90;1.50;;;24.30;69.00;;;;;;5073609;28;20024;-70
2023/04/14 11:55:13;;;;;;;3.72;1.55;;;23.90;67.50;;;;;;5073233;28;20025;-70
2023/04/14 11:57:43;;;;;;;7.63;1.73;;;23.30;67.70;;;;;;5073170;28;20056;-69
2023/04/14 12:00:11;;;;;;;4.20;1.70;;;22.90;69.40;;;;;;5073486;28;20039;-70
2023/04/14 12:02:37;;;;;;;9.60;1.58;;;22.90;69.20;;;;;;5073097;28;20404;-70
2023/04/14 12:05:03;;;;;;;6.40;1.65;;;22.60;70.00;;;;;;5073298;28;20029;-69
2023/04/14 12:07:29;;;;;;;3.95;1.15;;;22.30;69.60;;;;;;5073223;28;20081;-70
2023/04/14 12:09:56;;;;;;;5.38;1.83;;;22.20;69.60;;;;;;5073084;28;20380;-70
2023/04/14 12:12:22;;;;;;;4.22;1.60;;;22.50;69.70;;;;;;5073247;28;20032;-70
2023/04/14 12:14:49;;;;;;;5.85;1.85;;;22.90;69.50;;;;;;5073189;28;20127;-70
2023/04/14 12:17:16;;;;;;;6.25;1.45;;;22.90;68.90;;;;;;5073275;28;20028;-70
2023/04/14 12:19:43;;;;;;;5.00;1.42;;;23.20;68.80;;;;;;5073176;28;20025;-70
2023/04/14 12:22:09;;;;;;;6.65;1.75;;;23.30;68.90;;;;;;5072733;28;20515;-70
2023/04/14 12:24:36;;;;;;;4.45;1.60;;;23.20;68.40;;;;;;5072612;28;20064;-70
2023/04/14 12:27:04;;;;;;;5.63;1.52;;;22.70;68.30;;;;;;5072891;28;20452;-69
2023/04/14 12:29:31;;;;;;;9.50;1.85;;;22.20;69.30;;;;;;5073259;28;20029;-69
2023/04/14 12:31:57;;;;;;;4.75;1.20;;;21.60;69.10;;;;;;5068096;28;20033;-68
2023/04/14 12:34:27;;;;;;;4.03;1.45;;;21.10;70.30;;;;;;5072921;28;20396;-69
2023/04/14 12:36:52;;;;;;;6.75;1.60;;;20.80;71.40;;;;;;5072769;28;20033;-69
2023/04/14 12:39:23;;;;;;;5.10;1.77;;;20.70;71.10;;;;;;5072621;28;20136;-69
2023/04/14 12:41:48;;;;;;;6.38;2.00;;;20.50;71.90;;;;;;5072953;28;20036;-69
2023/04/14 12:44:19;;;;;;;7.18;1.85;;;20.60;72.10;;;;;;5072980;28;20020;-69
2023/04/14 12:46:50;;;;;;;5.75;1.30;;;21.00;71.80;;;;;;5073041;28;20025;-70
2023/04/14 12:49:32;;;;;;;8.05;2.00;;;21.60;72.10;;;;;;5073033;28;20027;-70